Terminal Aerodrome Forecast
Issued by NWS

Home | Current Version | Previous Version | Text Only | Print | Product List | Glossary On
Versions: 1 2 3 4 5 6 7 8 9 10 11 12 13 14 15 16 17 18 19 20 21 22 23
544
FTUS41 KLWX 231406 AAA
TAFMTN
TAF AMD
KMTN 231406Z 2314/2412 05013G28KT 4SM -RA OVC010 WS020/07045KT
     FM231700 07018G37KT 1SM RA OVC005 WS020/07045KT
     FM232100 05014G27KT 2SM -RA OVC008
     FM240500 01011G19KT 3SM BR OVC008
     FM240900 33011G20KT P6SM OVC015=

USA.gov is the U.S. government's official web portal to all federal, state and local government web resources and services.